createdAt,value
2023-05-14T00:02:51.348Z,13.80
2023-05-14T00:05:59.975Z,13.80
2023-05-14T00:09:08.493Z,13.80
2023-05-14T00:12:18.409Z,13.70
2023-05-14T00:15:30.051Z,13.80
2023-05-14T00:18:39.519Z,13.80
2023-05-14T00:21:48.877Z,13.70
2023-05-14T00:24:57.490Z,13.70
2023-05-14T00:28:07.621Z,13.60
2023-05-14T00:31:16.506Z,13.50
2023-05-14T00:34:26.931Z,13.50
2023-05-14T00:37:36.413Z,13.50
2023-05-14T00:40:50.028Z,13.50
2023-05-14T00:44:00.041Z,13.50
2023-05-14T00:47:11.576Z,13.40
2023-05-14T00:50:20.358Z,13.30
2023-05-14T00:53:29.521Z,13.30
2023-05-14T00:56:38.021Z,13.40
2023-05-14T00:59:47.883Z,13.40
2023-05-14T01:03:01.493Z,13.40
2023-05-14T01:06:18.274Z,13.20
2023-05-14T01:09:35.030Z,13.20
2023-05-14T01:12:51.733Z,13.20
2023-05-14T01:16:03.844Z,13.20
2023-05-14T01:19:23.372Z,13.10
2023-05-14T01:22:33.308Z,13.00
2023-05-14T01:25:42.167Z,13.00
2023-05-14T01:28:52.973Z,13.00
2023-05-14T01:32:03.483Z,13.00
2023-05-14T01:35:12.852Z,13.00
2023-05-14T01:38:23.974Z,12.90
2023-05-14T01:41:33.223Z,12.90
2023-05-14T01:44:42.750Z,12.90
2023-05-14T01:47:51.248Z,12.90
2023-05-14T01:50:59.757Z,12.90
2023-05-14T01:54:09.523Z,12.90
2023-05-14T01:57:18.183Z,12.90
2023-05-14T02:00:27.104Z,12.90
2023-05-14T02:03:35.489Z,12.90
2023-05-14T02:06:43.996Z,12.80
2023-05-14T02:09:53.762Z,12.70
2023-05-14T02:13:02.153Z,12.80
2023-05-14T02:16:11.004Z,12.80
2023-05-14T02:19:19.457Z,12.80
2023-05-14T02:22:27.809Z,12.70
2023-05-14T02:25:37.897Z,12.70
2023-05-14T02:28:46.752Z,12.70
2023-05-14T02:31:55.224Z,12.70
2023-05-14T02:35:04.039Z,12.70
2023-05-14T02:38:12.336Z,12.70
2023-05-14T02:41:22.440Z,12.70
2023-05-14T02:44:31.883Z,12.80
2023-05-14T02:47:40.669Z,12.80
2023-05-14T02:50:51.478Z,12.80
2023-05-14T02:53:59.796Z,12.80
2023-05-14T02:57:09.625Z,12.80
2023-05-14T03:00:18.532Z,12.80
2023-05-14T03:03:27.773Z,12.70
2023-05-14T03:06:36.675Z,12.60
2023-05-14T03:09:45.268Z,12.50
2023-05-14T03:12:55.090Z,12.40
2023-05-14T03:16:03.600Z,12.40
2023-05-14T03:19:12.088Z,12.40
2023-05-14T03:22:20.744Z,12.50
2023-05-14T03:25:29.414Z,12.40
2023-05-14T03:28:39.166Z,12.40
2023-05-14T03:31:47.564Z,12.40
2023-05-14T03:34:55.925Z,12.50
2023-05-14T03:38:04.322Z,12.40
2023-05-14T03:41:12.696Z,12.40
2023-05-14T03:44:22.704Z,12.40
2023-05-14T03:47:31.072Z,12.40
2023-05-14T03:50:41.136Z,12.40
2023-05-14T03:53:49.558Z,12.40
2023-05-14T03:56:58.063Z,12.50
2023-05-14T04:00:09.414Z,12.50
2023-05-14T04:03:25.075Z,12.50
2023-05-14T04:06:34.979Z,12.60
2023-05-14T04:09:43.726Z,12.60
2023-05-14T04:12:53.299Z,12.60
2023-05-14T04:16:03.255Z,12.60
2023-05-14T04:19:12.600Z,12.60
2023-05-14T04:22:21.077Z,12.70
2023-05-14T04:25:29.802Z,12.70
2023-05-14T04:28:38.150Z,12.80
2023-05-14T04:31:48.014Z,12.80
2023-05-14T04:34:56.431Z,12.80
2023-05-14T04:38:05.334Z,12.90
2023-05-14T04:41:13.738Z,13.00
2023-05-14T04:44:22.139Z,13.00
2023-05-14T04:47:31.945Z,13.10
2023-05-14T04:50:40.328Z,13.30
2023-05-14T04:53:48.710Z,13.40
2023-05-14T04:56:57.083Z,13.50
2023-05-14T05:00:07.886Z,13.60
2023-05-14T05:03:17.804Z,13.60
2023-05-14T05:06:26.266Z,13.80
2023-05-14T05:09:34.739Z,13.90
2023-05-14T05:12:43.236Z,14.00
2023-05-14T05:15:51.565Z,14.20
2023-05-14T05:19:01.411Z,14.40
2023-05-14T05:22:10.383Z,14.60
2023-05-14T05:25:18.779Z,14.80
2023-05-14T05:28:27.546Z,14.90
2023-05-14T05:31:36.762Z,14.80
2023-05-14T05:34:46.571Z,15.00
2023-05-14T05:37:55.108Z,15.00
2023-05-14T05:41:03.551Z,15.10
2023-05-14T05:44:11.971Z,15.30
2023-05-14T05:47:20.345Z,15.40
2023-05-14T05:50:30.465Z,15.50
2023-05-14T05:53:38.867Z,15.60
2023-05-14T05:56:47.216Z,15.70
2023-05-14T05:59:55.585Z,15.70
2023-05-14T06:03:04.175Z,15.80
2023-05-14T06:06:13.984Z,15.80
2023-05-14T06:09:22.372Z,16.00
2023-05-14T06:12:30.760Z,16.20
2023-05-14T06:15:39.219Z,16.30
2023-05-14T06:18:47.610Z,16.30
2023-05-14T06:21:57.333Z,16.40
2023-05-14T06:25:06.246Z,16.40
2023-05-14T06:28:14.701Z,17.00
2023-05-14T06:31:23.110Z,18.80
2023-05-14T06:34:32.080Z,20.90
2023-05-14T06:37:41.850Z,22.60
2023-05-14T06:40:50.390Z,23.80
2023-05-14T06:43:58.718Z,23.90
2023-05-14T06:47:08.608Z,22.10
2023-05-14T06:50:17.194Z,20.00
2023-05-14T06:53:27.161Z,19.30
2023-05-14T06:56:35.704Z,18.90
2023-05-14T06:59:44.128Z,18.80
2023-05-14T07:02:52.532Z,18.60
2023-05-14T07:06:01.097Z,18.20
2023-05-14T07:09:11.867Z,17.90
2023-05-14T07:12:20.329Z,18.00
2023-05-14T07:15:28.796Z,18.00
2023-05-14T07:18:37.524Z,18.30
2023-05-14T07:21:46.009Z,18.30
2023-05-14T07:24:55.852Z,18.10
2023-05-14T07:28:04.467Z,17.60
2023-05-14T07:31:12.906Z,17.90
2023-05-14T07:34:22.553Z,17.80
2023-05-14T07:37:30.890Z,18.40
2023-05-14T07:40:40.840Z,18.80
2023-05-14T07:43:49.370Z,18.80
2023-05-14T07:46:57.793Z,18.50
2023-05-14T07:50:07.091Z,19.00
2023-05-14T07:53:15.647Z,19.80
2023-05-14T07:56:25.857Z,20.90
2023-05-14T07:59:34.217Z,21.50
2023-05-14T08:02:42.869Z,22.10
2023-05-14T08:05:51.845Z,22.70
2023-05-14T08:09:00.198Z,22.80
2023-05-14T08:12:10.443Z,22.10
2023-05-14T08:15:19.103Z,21.60
2023-05-14T08:18:27.792Z,21.70
2023-05-14T08:21:36.123Z,22.40
2023-05-14T08:24:44.477Z,23.30
2023-05-14T08:27:54.848Z,22.80
2023-05-14T08:31:03.456Z,21.70
2023-05-14T08:34:11.928Z,21.50
2023-05-14T08:37:20.354Z,21.00
2023-05-14T08:40:28.731Z,21.00
2023-05-14T08:43:45.375Z,20.80
2023-05-14T08:46:55.006Z,20.60
2023-05-14T08:50:04.992Z,20.60
2023-05-14T08:53:13.462Z,20.60
2023-05-14T08:56:21.926Z,20.70
2023-05-14T08:59:31.952Z,20.60
2023-05-14T09:02:42.322Z,20.70
2023-05-14T09:05:52.595Z,21.00
2023-05-14T09:09:01.129Z,21.70
2023-05-14T09:12:10.574Z,22.00
2023-05-14T09:15:20.440Z,22.00
2023-05-14T09:18:29.067Z,22.00
2023-05-14T09:21:38.434Z,22.70
2023-05-14T09:24:47.523Z,22.70
2023-05-14T09:27:58.511Z,23.20
2023-05-14T09:31:08.758Z,23.90
2023-05-14T09:34:25.926Z,24.80
2023-05-14T09:37:37.827Z,25.50
2023-05-14T09:40:47.901Z,25.70
2023-05-14T09:43:57.396Z,25.30
2023-05-14T09:47:07.911Z,25.90
2023-05-14T09:50:16.406Z,26.40
2023-05-14T09:53:24.840Z,26.70
2023-05-14T09:56:34.905Z,26.40
2023-05-14T09:59:43.283Z,26.20
2023-05-14T10:02:53.841Z,25.60
2023-05-14T10:06:05.832Z,25.20
2023-05-14T10:09:15.179Z,25.70
2023-05-14T10:12:24.460Z,25.50
2023-05-14T10:15:50.735Z,25.60
2023-05-14T10:19:05.127Z,24.90
2023-05-14T10:22:16.471Z,23.90
2023-05-14T10:25:25.146Z,23.70
2023-05-14T10:28:33.680Z,22.80
2023-05-14T10:31:49.594Z,22.50
2023-05-14T10:35:02.783Z,22.70
2023-05-14T10:38:11.215Z,22.50
2023-05-14T10:41:21.699Z,22.80
2023-05-14T10:44:30.818Z,22.80
2023-05-14T10:47:41.406Z,23.10
2023-05-14T10:50:52.341Z,23.80
2023-05-14T10:54:02.684Z,23.80
2023-05-14T10:57:12.963Z,24.30
2023-05-14T11:00:21.595Z,24.40
2023-05-14T11:03:32.261Z,24.40
2023-05-14T11:06:43.617Z,25.00
2023-05-14T11:09:52.711Z,24.50
2023-05-14T11:13:01.252Z,24.40
2023-05-14T11:19:23.240Z,24.70
2023-05-14T11:22:32.977Z,24.70
2023-05-14T11:25:42.332Z,24.90
2023-05-14T11:28:51.116Z,25.20
2023-05-14T11:32:00.825Z,25.20
2023-05-14T11:35:09.774Z,25.10
2023-05-14T11:38:21.277Z,24.90
2023-05-14T11:41:31.090Z,24.80
2023-05-14T11:44:40.693Z,24.60
2023-05-14T11:47:49.089Z,24.60
2023-05-14T11:50:57.676Z,24.60
2023-05-14T11:54:07.599Z,24.20
2023-05-14T11:57:19.165Z,23.70
2023-05-14T12:00:28.414Z,23.70
2023-05-14T12:03:37.048Z,23.30
2023-05-14T12:06:46.730Z,23.20
2023-05-14T12:09:56.504Z,22.90
2023-05-14T12:13:08.624Z,22.90
2023-05-14T12:16:17.905Z,22.90
2023-05-14T12:19:26.437Z,22.90
2023-05-14T12:22:37.081Z,22.60
2023-05-14T12:25:53.334Z,22.30
2023-05-14T12:29:03.002Z,21.70
2023-05-14T12:32:12.064Z,21.50
2023-05-14T12:35:22.809Z,21.40
2023-05-14T12:38:33.361Z,21.20
2023-05-14T12:41:43.403Z,21.20
2023-05-14T12:44:51.821Z,21.40
2023-05-14T12:48:00.284Z,21.20
2023-05-14T12:51:08.707Z,21.00
2023-05-14T12:54:17.176Z,20.90
2023-05-14T12:57:27.768Z,20.90
2023-05-14T13:00:36.178Z,21.00
2023-05-14T13:03:44.627Z,21.00
2023-05-14T13:06:53.474Z,21.10
2023-05-14T13:10:01.862Z,21.30
2023-05-14T13:13:13.013Z,21.60
2023-05-14T13:16:21.416Z,21.60
2023-05-14T13:19:29.868Z,21.70
2023-05-14T13:22:38.209Z,21.50
2023-05-14T13:25:49.174Z,21.50
2023-05-14T13:28:59.695Z,21.20
2023-05-14T13:32:08.963Z,20.90
2023-05-14T13:35:17.736Z,20.60
2023-05-14T13:38:26.168Z,20.20
2023-05-14T13:41:35.590Z,20.50
2023-05-14T13:44:45.556Z,20.50
2023-05-14T13:47:54.071Z,20.30
2023-05-14T13:51:02.408Z,20.40
2023-05-14T13:54:10.739Z,20.30
2023-05-14T13:57:19.194Z,20.60
2023-05-14T14:00:29.083Z,20.30
2023-05-14T14:03:37.544Z,19.90
2023-05-14T14:06:45.908Z,19.80
2023-05-14T14:09:54.292Z,19.60
2023-05-14T14:13:02.683Z,19.80
2023-05-14T14:16:12.423Z,20.00
2023-05-14T14:19:20.931Z,20.20
2023-05-14T14:22:29.521Z,20.10
2023-05-14T14:25:37.886Z,20.10
2023-05-14T14:28:46.477Z,20.20
2023-05-14T14:31:56.309Z,20.40
2023-05-14T14:35:05.008Z,20.20
2023-05-14T14:38:13.793Z,20.00
2023-05-14T14:41:22.378Z,19.90
2023-05-14T14:44:31.046Z,19.80
2023-05-14T14:47:45.906Z,19.50
2023-05-14T14:50:54.733Z,19.50
2023-05-14T14:54:04.901Z,19.00
2023-05-14T14:57:13.184Z,19.20
2023-05-14T15:00:21.739Z,19.20
2023-05-14T15:03:31.639Z,19.50
2023-05-14T15:06:40.269Z,19.60
2023-05-14T15:09:48.769Z,19.80
2023-05-14T15:12:59.524Z,19.90
2023-05-14T15:16:08.264Z,19.90
2023-05-14T15:19:18.277Z,19.90
2023-05-14T15:22:26.994Z,19.90
2023-05-14T15:25:35.495Z,20.00
2023-05-14T15:28:43.875Z,20.00
2023-05-14T15:31:52.254Z,20.00
2023-05-14T15:35:02.087Z,19.80
2023-05-14T15:38:10.477Z,19.70
2023-05-14T15:41:18.881Z,19.70
2023-05-14T15:44:27.486Z,19.70
2023-05-14T15:47:36.178Z,19.50
2023-05-14T15:50:48.309Z,19.70
2023-05-14T15:53:57.939Z,19.90
2023-05-14T15:57:06.803Z,19.80
2023-05-14T16:00:16.463Z,19.80
2023-05-14T16:03:25.251Z,19.70
2023-05-14T16:06:35.416Z,19.70
2023-05-14T16:09:44.061Z,19.80
2023-05-14T16:12:52.764Z,19.70
2023-05-14T16:16:01.450Z,19.70
2023-05-14T16:19:10.057Z,19.90
2023-05-14T16:22:20.080Z,19.90
2023-05-14T16:25:28.589Z,19.90
2023-05-14T16:28:37.110Z,19.90
2023-05-14T16:31:46.235Z,19.90
2023-05-14T16:34:56.486Z,19.90
2023-05-14T16:38:06.391Z,20.00
2023-05-14T16:41:14.935Z,20.00
2023-05-14T16:44:23.287Z,19.80
2023-05-14T16:47:31.838Z,19.70
2023-05-14T16:50:40.220Z,19.60
2023-05-14T16:53:50.630Z,19.50
2023-05-14T16:56:59.659Z,19.40
2023-05-14T17:00:09.518Z,19.30
2023-05-14T17:03:17.981Z,19.10
2023-05-14T17:06:26.723Z,19.00
2023-05-14T17:09:36.533Z,19.00
2023-05-14T17:12:45.123Z,19.10
2023-05-14T17:15:53.603Z,19.00
2023-05-14T17:19:02.154Z,19.00
2023-05-14T17:22:10.941Z,18.90
2023-05-14T17:25:23.080Z,18.90
2023-05-14T17:28:31.670Z,18.80
2023-05-14T17:31:40.121Z,18.70
2023-05-14T17:34:48.502Z,18.60
2023-05-14T17:37:57.894Z,18.60
2023-05-14T17:41:08.669Z,18.60
2023-05-14T17:44:17.130Z,18.60
2023-05-14T17:47:25.608Z,18.60
2023-05-14T17:50:34.033Z,18.60
2023-05-14T17:53:42.425Z,18.50
2023-05-14T17:56:52.301Z,18.50
2023-05-14T18:00:00.665Z,18.40
2023-05-14T18:03:09.301Z,18.40
2023-05-14T18:06:17.911Z,18.40
2023-05-14T18:09:26.279Z,18.30
2023-05-14T18:12:37.116Z,18.30
2023-05-14T18:15:45.599Z,18.20
2023-05-14T18:18:54.080Z,18.10
2023-05-14T18:22:02.441Z,18.10
2023-05-14T18:25:12.871Z,18.10
2023-05-14T18:28:22.751Z,18.10
2023-05-14T18:31:31.299Z,18.00
2023-05-14T18:34:39.790Z,18.00
2023-05-14T18:37:48.166Z,18.00
2023-05-14T18:40:56.522Z,17.90
2023-05-14T18:44:06.328Z,17.90
2023-05-14T18:47:14.856Z,17.90
2023-05-14T18:50:23.185Z,17.80
2023-05-14T18:53:31.539Z,17.80
2023-05-14T18:56:41.277Z,17.70
2023-05-14T18:59:51.067Z,17.70
2023-05-14T19:02:59.576Z,17.70
2023-05-14T19:06:08.400Z,17.60
2023-05-14T19:09:21.018Z,17.60
2023-05-14T19:12:29.416Z,17.50
2023-05-14T19:15:39.356Z,17.40
2023-05-14T19:18:47.833Z,17.40
2023-05-14T19:21:56.188Z,17.30
2023-05-14T19:25:05.229Z,17.10
2023-05-14T19:28:15.217Z,17.00
2023-05-14T19:31:25.131Z,16.70
2023-05-14T19:34:33.490Z,16.60
2023-05-14T19:37:42.065Z,16.50
2023-05-14T19:40:51.163Z,16.30
2023-05-14T19:43:59.554Z,16.10
2023-05-14T19:47:09.605Z,16.00
2023-05-14T19:50:18.218Z,15.90
2023-05-14T19:53:29.821Z,15.90
2023-05-14T19:56:38.392Z,16.00
2023-05-14T19:59:47.133Z,16.10
2023-05-14T20:02:59.706Z,16.20
2023-05-14T20:06:08.697Z,16.10
2023-05-14T20:09:17.046Z,16.00
2023-05-14T20:12:25.586Z,15.90
2023-05-14T20:15:34.015Z,15.90
2023-05-14T20:18:44.033Z,15.90
2023-05-14T20:21:52.400Z,15.80
2023-05-14T20:25:00.826Z,15.80
2023-05-14T20:28:09.275Z,15.80
2023-05-14T20:31:18.600Z,15.80
2023-05-14T20:34:28.377Z,15.80
2023-05-14T20:37:36.861Z,15.80
2023-05-14T20:40:45.409Z,15.70
2023-05-14T20:43:53.852Z,15.60
2023-05-14T20:47:02.387Z,15.60
2023-05-14T20:50:13.687Z,15.50
2023-05-14T20:53:22.179Z,15.50
2023-05-14T20:56:30.615Z,15.50
2023-05-14T20:59:39.077Z,15.40
2023-05-14T21:02:49.396Z,15.40
2023-05-14T21:06:00.656Z,15.40
2023-05-14T21:09:09.166Z,15.30
2023-05-14T21:12:17.609Z,15.20
2023-05-14T21:15:27.430Z,15.00
2023-05-14T21:18:36.648Z,14.80
2023-05-14T21:21:47.410Z,14.80
2023-05-14T21:24:56.776Z,14.70
2023-05-14T21:28:05.216Z,14.70
2023-05-14T21:31:13.718Z,14.70
2023-05-14T21:34:22.190Z,14.70
2023-05-14T21:37:32.104Z,14.70
2023-05-14T21:40:40.559Z,14.60
2023-05-14T21:43:49.030Z,14.60
2023-05-14T21:46:57.500Z,14.60
2023-05-14T21:50:06.957Z,14.50
2023-05-14T21:53:16.699Z,14.40
2023-05-14T21:56:26.344Z,14.30
2023-05-14T21:59:35.224Z,14.20
2023-05-14T22:02:43.618Z,14.00
2023-05-14T22:05:51.998Z,13.90
2023-05-14T22:09:01.776Z,13.90
2023-05-14T22:12:10.547Z,13.90
2023-05-14T22:15:18.959Z,13.70
2023-05-14T22:18:27.531Z,13.60
2023-05-14T22:21:35.974Z,13.70
2023-05-14T22:24:45.887Z,13.70
2023-05-14T22:27:54.305Z,13.70
2023-05-14T22:31:04.201Z,13.60
2023-05-14T22:34:12.669Z,13.50
2023-05-14T22:37:21.227Z,13.40
2023-05-14T22:40:31.028Z,13.30
2023-05-14T22:43:39.417Z,13.30
2023-05-14T22:46:48.104Z,13.20
2023-05-14T22:49:56.641Z,13.20
2023-05-14T22:53:04.968Z,13.20
2023-05-14T22:56:14.725Z,13.10
2023-05-14T22:59:23.950Z,13.10
2023-05-14T23:02:32.476Z,13.10
2023-05-14T23:05:40.852Z,13.10
2023-05-14T23:08:49.215Z,13.00
2023-05-14T23:11:59.005Z,12.90
2023-05-14T23:15:08.370Z,13.00
2023-05-14T23:18:16.813Z,12.90
2023-05-14T23:21:25.641Z,12.80
2023-05-14T23:24:34.148Z,12.80
2023-05-14T23:27:43.892Z,12.70
2023-05-14T23:30:52.425Z,12.70
2023-05-14T23:34:00.823Z,12.60
2023-05-14T23:37:09.255Z,12.60
2023-05-14T23:40:17.808Z,12.60
2023-05-14T23:43:27.893Z,12.50
2023-05-14T23:46:36.336Z,12.20
2023-05-14T23:49:44.818Z,12.20
2023-05-14T23:52:53.791Z,12.10
2023-05-14T23:56:02.234Z,12.00
2023-05-14T23:59:12.383Z,12.00
